Gonzalez Chaves, Argentina
Current Conditions -  °F | °C
As of 8:00 PM on Friday 19 Dec 2014 (Local Time) from SAZM Reporting Station
Broken Clouds Broken Clouds  
Wind Chill: 72°   Ceiling: 20000
Heat Index: 72°   Visibility: 6mi
Dew Point: 54°   Wind: 7mph
Humidity: 53%   Direction: 140°SE
Pressure: 29.44"   Gusts: NA
Location:  38.04°S, 60.11°W
Report Text: SAZM 192300Z 14006KT 9999 FEW035TCU FEW040CBBKN200 22/12 Q0997
Loading
Personal Weather Stations






























Interactive Weather Map New forecast layout! Learn more

10-Day Weather Forecast

Advertisements
Track Severe Weather on mobile